sensor_id;sensor_type;location;lat;lon;timestamp;P1;durP1;ratioP1;P2;durP2;ratioP2
28605;SDS011;46498;49.968;7.754;2023-08-17T00:02:57;3.55;;;1.23;;
28605;SDS011;46498;49.968;7.754;2023-08-17T00:07:59;6.85;;;1.60;;
28605;SDS011;46498;49.968;7.754;2023-08-17T00:13:01;6.07;;;1.90;;
28605;SDS011;46498;49.968;7.754;2023-08-17T00:18:04;4.40;;;1.85;;
28605;SDS011;46498;49.968;7.754;2023-08-17T00:23:05;5.62;;;1.80;;
28605;SDS011;46498;49.968;7.754;2023-08-17T00:28:06;4.40;;;1.50;;
28605;SDS011;46498;49.968;7.754;2023-08-17T00:33:06;3.40;;;1.52;;
28605;SDS011;46498;49.968;7.754;2023-08-17T00:38:07;11.52;;;1.65;;
28605;SDS011;46498;49.968;7.754;2023-08-17T00:43:08;4.45;;;1.83;;
28605;SDS011;46498;49.968;7.754;2023-08-17T00:48:09;38.15;;;3.78;;
28605;SDS011;46498;49.968;7.754;2023-08-17T00:53:12;5.12;;;3.47;;
28605;SDS011;46498;49.968;7.754;2023-08-17T00:58:14;7.87;;;5.45;;
28605;SDS011;46498;49.968;7.754;2023-08-17T01:03:15;6.55;;;4.35;;
28605;SDS011;46498;49.968;7.754;2023-08-17T01:13:21;8.50;;;5.70;;
28605;SDS011;46498;49.968;7.754;2023-08-17T01:18:33;6.45;;;4.65;;
28605;SDS011;46498;49.968;7.754;2023-08-17T01:23:37;10.70;;;5.12;;
28605;SDS011;46498;49.968;7.754;2023-08-17T01:28:38;14.52;;;5.72;;
28605;SDS011;46498;49.968;7.754;2023-08-17T01:33:42;13.90;;;6.72;;
28605;SDS011;46498;49.968;7.754;2023-08-17T01:38:48;6.55;;;5.05;;
28605;SDS011;46498;49.968;7.754;2023-08-17T01:43:52;7.60;;;4.35;;
28605;SDS011;46498;49.968;7.754;2023-08-17T01:48:53;8.25;;;3.40;;
28605;SDS011;46498;49.968;7.754;2023-08-17T01:53:57;9.82;;;4.30;;
28605;SDS011;46498;49.968;7.754;2023-08-17T01:58:58;12.23;;;7.43;;
28605;SDS011;46498;49.968;7.754;2023-08-17T02:03:59;11.73;;;7.72;;
28605;SDS011;46498;49.968;7.754;2023-08-17T02:09:02;15.32;;;8.02;;
28605;SDS011;46498;49.968;7.754;2023-08-17T02:14:03;11.48;;;7.40;;
28605;SDS011;46498;49.968;7.754;2023-08-17T02:19:04;11.73;;;6.22;;
28605;SDS011;46498;49.968;7.754;2023-08-17T02:24:05;9.40;;;5.68;;
28605;SDS011;46498;49.968;7.754;2023-08-17T02:29:07;5.72;;;3.87;;
28605;SDS011;46498;49.968;7.754;2023-08-17T02:34:07;9.38;;;5.00;;
28605;SDS011;46498;49.968;7.754;2023-08-17T02:39:10;3.93;;;2.83;;
28605;SDS011;46498;49.968;7.754;2023-08-17T02:44:11;5.32;;;3.00;;
28605;SDS011;46498;49.968;7.754;2023-08-17T02:49:11;4.65;;;3.47;;
28605;SDS011;46498;49.968;7.754;2023-08-17T02:54:12;5.75;;;4.03;;
28605;SDS011;46498;49.968;7.754;2023-08-17T02:59:13;8.80;;;5.62;;
28605;SDS011;46498;49.968;7.754;2023-08-17T03:04:14;9.45;;;6.03;;
28605;SDS011;46498;49.968;7.754;2023-08-17T03:09:15;13.75;;;7.57;;
28605;SDS011;46498;49.968;7.754;2023-08-17T03:14:16;9.10;;;5.47;;
28605;SDS011;46498;49.968;7.754;2023-08-17T03:19:17;8.18;;;5.95;;
28605;SDS011;46498;49.968;7.754;2023-08-17T03:24:19;11.57;;;5.77;;
28605;SDS011;46498;49.968;7.754;2023-08-17T03:29:21;15.47;;;7.43;;
28605;SDS011;46498;49.968;7.754;2023-08-17T03:34:22;19.20;;;6.22;;
28605;SDS011;46498;49.968;7.754;2023-08-17T03:39:23;9.65;;;5.80;;
28605;SDS011;46498;49.968;7.754;2023-08-17T03:44:24;13.82;;;6.37;;
28605;SDS011;46498;49.968;7.754;2023-08-17T03:49:25;9.82;;;5.82;;
28605;SDS011;46498;49.968;7.754;2023-08-17T03:54:27;22.87;;;7.00;;
28605;SDS011;46498;49.968;7.754;2023-08-17T03:59:29;12.70;;;6.05;;
28605;SDS011;46498;49.968;7.754;2023-08-17T04:04:30;16.02;;;6.97;;
28605;SDS011;46498;49.968;7.754;2023-08-17T04:09:31;19.67;;;6.82;;
28605;SDS011;46498;49.968;7.754;2023-08-17T04:14:34;18.33;;;7.75;;
28605;SDS011;46498;49.968;7.754;2023-08-17T04:19:34;10.20;;;5.20;;
28605;SDS011;46498;49.968;7.754;2023-08-17T04:24:35;15.82;;;6.35;;
28605;SDS011;46498;49.968;7.754;2023-08-17T04:29:37;13.07;;;6.12;;
28605;SDS011;46498;49.968;7.754;2023-08-17T04:34:38;11.40;;;6.55;;
28605;SDS011;46498;49.968;7.754;2023-08-17T04:39:39;11.45;;;5.87;;
28605;SDS011;46498;49.968;7.754;2023-08-17T04:44:42;10.63;;;5.43;;
28605;SDS011;46498;49.968;7.754;2023-08-17T04:49:43;14.05;;;5.75;;
28605;SDS011;46498;49.968;7.754;2023-08-17T04:54:44;9.25;;;5.40;;
28605;SDS011;46498;49.968;7.754;2023-08-17T04:59:45;8.70;;;5.10;;
28605;SDS011;46498;49.968;7.754;2023-08-17T05:04:46;8.15;;;4.55;;
28605;SDS011;46498;49.968;7.754;2023-08-17T05:09:48;11.00;;;5.03;;
28605;SDS011;46498;49.968;7.754;2023-08-17T05:19:52;7.57;;;4.97;;
28605;SDS011;46498;49.968;7.754;2023-08-17T05:24:53;10.48;;;5.55;;
28605;SDS011;46498;49.968;7.754;2023-08-17T05:29:54;7.78;;;4.28;;
28605;SDS011;46498;49.968;7.754;2023-08-17T05:34:56;7.97;;;4.78;;
28605;SDS011;46498;49.968;7.754;2023-08-17T05:39:57;8.63;;;4.82;;
28605;SDS011;46498;49.968;7.754;2023-08-17T05:44:59;7.65;;;4.35;;
28605;SDS011;46498;49.968;7.754;2023-08-17T05:50:00;6.68;;;4.75;;
28605;SDS011;46498;49.968;7.754;2023-08-17T05:55:01;9.27;;;4.97;;
28605;SDS011;46498;49.968;7.754;2023-08-17T06:00:02;6.28;;;3.75;;
28605;SDS011;46498;49.968;7.754;2023-08-17T06:05:12;11.60;;;3.90;;
28605;SDS011;46498;49.968;7.754;2023-08-17T06:10:14;4.90;;;3.60;;
28605;SDS011;46498;49.968;7.754;2023-08-17T06:15:15;4.05;;;3.03;;
28605;SDS011;46498;49.968;7.754;2023-08-17T06:20:16;4.32;;;3.35;;
28605;SDS011;46498;49.968;7.754;2023-08-17T06:25:17;2.37;;;2.17;;
28605;SDS011;46498;49.968;7.754;2023-08-17T06:30:18;2.65;;;2.30;;
28605;SDS011;46498;49.968;7.754;2023-08-17T06:35:19;2.75;;;1.90;;
28605;SDS011;46498;49.968;7.754;2023-08-17T06:40:20;5.47;;;2.00;;
28605;SDS011;46498;49.968;7.754;2023-08-17T06:45:21;2.45;;;2.15;;
28605;SDS011;46498;49.968;7.754;2023-08-17T06:50:23;5.47;;;3.63;;
28605;SDS011;46498;49.968;7.754;2023-08-17T06:55:23;2.97;;;2.67;;
28605;SDS011;46498;49.968;7.754;2023-08-17T07:00:25;4.22;;;2.40;;
28605;SDS011;46498;49.968;7.754;2023-08-17T07:05:26;3.65;;;2.78;;
28605;SDS011;46498;49.968;7.754;2023-08-17T07:10:28;4.55;;;3.22;;
28605;SDS011;46498;49.968;7.754;2023-08-17T07:15:32;2.83;;;2.00;;
28605;SDS011;46498;49.968;7.754;2023-08-17T07:20:33;2.40;;;1.98;;
28605;SDS011;46498;49.968;7.754;2023-08-17T07:25:34;5.80;;;3.35;;
28605;SDS011;46498;49.968;7.754;2023-08-17T07:30:35;3.08;;;2.75;;
28605;SDS011;46498;49.968;7.754;2023-08-17T07:35:35;3.50;;;2.22;;
28605;SDS011;46498;49.968;7.754;2023-08-17T07:40:36;2.67;;;2.28;;
28605;SDS011;46498;49.968;7.754;2023-08-17T07:45:37;3.28;;;2.40;;
28605;SDS011;46498;49.968;7.754;2023-08-17T07:50:38;3.72;;;2.25;;
28605;SDS011;46498;49.968;7.754;2023-08-17T07:55:39;3.47;;;2.60;;
28605;SDS011;46498;49.968;7.754;2023-08-17T08:00:40;3.60;;;2.10;;
28605;SDS011;46498;49.968;7.754;2023-08-17T08:05:41;2.80;;;2.20;;
28605;SDS011;46498;49.968;7.754;2023-08-17T08:10:42;3.00;;;1.98;;
28605;SDS011;46498;49.968;7.754;2023-08-17T08:15:42;6.37;;;1.80;;
28605;SDS011;46498;49.968;7.754;2023-08-17T08:20:43;4.12;;;1.33;;
28605;SDS011;46498;49.968;7.754;2023-08-17T08:25:44;1.87;;;1.50;;
28605;SDS011;46498;49.968;7.754;2023-08-17T08:30:45;2.10;;;1.60;;
28605;SDS011;46498;49.968;7.754;2023-08-17T08:35:46;3.33;;;2.40;;
28605;SDS011;46498;49.968;7.754;2023-08-17T08:40:47;3.45;;;2.05;;
28605;SDS011;46498;49.968;7.754;2023-08-17T08:45:48;2.55;;;1.85;;
28605;SDS011;46498;49.968;7.754;2023-08-17T08:50:51;2.97;;;2.12;;
28605;SDS011;46498;49.968;7.754;2023-08-17T08:55:57;3.45;;;1.95;;
28605;SDS011;46498;49.968;7.754;2023-08-17T09:00:59;3.20;;;2.10;;
28605;SDS011;46498;49.968;7.754;2023-08-17T09:06:01;1.90;;;1.70;;
28605;SDS011;46498;49.968;7.754;2023-08-17T09:11:04;7.25;;;2.00;;
28605;SDS011;46498;49.968;7.754;2023-08-17T09:16:04;4.53;;;1.45;;
28605;SDS011;46498;49.968;7.754;2023-08-17T09:21:08;2.87;;;1.98;;
28605;SDS011;46498;49.968;7.754;2023-08-17T09:26:20;3.60;;;1.87;;
28605;SDS011;46498;49.968;7.754;2023-08-17T09:31:24;5.22;;;1.83;;
28605;SDS011;46498;49.968;7.754;2023-08-17T09:36:25;4.65;;;1.70;;
28605;SDS011;46498;49.968;7.754;2023-08-17T09:41:26;3.90;;;1.95;;
28605;SDS011;46498;49.968;7.754;2023-08-17T09:46:28;3.45;;;2.08;;
28605;SDS011;46498;49.968;7.754;2023-08-17T09:51:29;2.95;;;1.80;;
28605;SDS011;46498;49.968;7.754;2023-08-17T09:56:31;2.75;;;1.85;;
28605;SDS011;46498;49.968;7.754;2023-08-17T10:01:32;4.78;;;1.65;;
28605;SDS011;46498;49.968;7.754;2023-08-17T10:06:33;3.08;;;2.08;;
28605;SDS011;46498;49.968;7.754;2023-08-17T10:11:38;2.35;;;2.00;;
28605;SDS011;46498;49.968;7.754;2023-08-17T10:16:49;1.85;;;1.65;;
28605;SDS011;46498;49.968;7.754;2023-08-17T10:22:00;2.67;;;1.67;;
28605;SDS011;46498;49.968;7.754;2023-08-17T10:27:08;2.17;;;1.73;;
28605;SDS011;46498;49.968;7.754;2023-08-17T10:32:10;3.08;;;1.40;;
28605;SDS011;46498;49.968;7.754;2023-08-17T10:37:17;2.37;;;1.70;;
28605;SDS011;46498;49.968;7.754;2023-08-17T10:42:35;2.58;;;1.70;;
28605;SDS011;46498;49.968;7.754;2023-08-17T10:47:36;1.73;;;1.45;;
28605;SDS011;46498;49.968;7.754;2023-08-17T10:52:38;2.20;;;1.57;;
28605;SDS011;46498;49.968;7.754;2023-08-17T10:57:40;1.92;;;1.30;;
28605;SDS011;46498;49.968;7.754;2023-08-17T11:02:54;1.90;;;1.33;;
28605;SDS011;46498;49.968;7.754;2023-08-17T11:08:02;2.42;;;1.40;;
28605;SDS011;46498;49.968;7.754;2023-08-17T11:13:04;3.00;;;1.50;;
28605;SDS011;46498;49.968;7.754;2023-08-17T11:18:06;1.50;;;1.20;;
28605;SDS011;46498;49.968;7.754;2023-08-17T11:23:10;3.83;;;1.40;;
28605;SDS011;46498;49.968;7.754;2023-08-17T11:28:12;2.53;;;1.48;;
28605;SDS011;46498;49.968;7.754;2023-08-17T11:33:14;4.30;;;1.90;;
28605;SDS011;46498;49.968;7.754;2023-08-17T11:38:15;2.40;;;1.60;;
28605;SDS011;46498;49.968;7.754;2023-08-17T11:43:16;1.83;;;1.45;;
28605;SDS011;46498;49.968;7.754;2023-08-17T11:48:23;2.37;;;1.60;;
28605;SDS011;46498;49.968;7.754;2023-08-17T11:53:24;2.78;;;1.30;;
28605;SDS011;46498;49.968;7.754;2023-08-17T11:58:45;5.25;;;1.50;;
28605;SDS011;46498;49.968;7.754;2023-08-17T12:03:47;1.70;;;1.50;;
28605;SDS011;46498;49.968;7.754;2023-08-17T12:13:51;2.95;;;1.52;;
28605;SDS011;46498;49.968;7.754;2023-08-17T12:18:53;2.10;;;1.65;;
28605;SDS011;46498;49.968;7.754;2023-08-17T12:23:54;2.35;;;1.50;;
28605;SDS011;46498;49.968;7.754;2023-08-17T12:28:55;3.10;;;1.75;;
28605;SDS011;46498;49.968;7.754;2023-08-17T12:33:56;3.10;;;1.55;;
28605;SDS011;46498;49.968;7.754;2023-08-17T12:38:57;2.53;;;1.50;;
28605;SDS011;46498;49.968;7.754;2023-08-17T12:43:58;4.30;;;1.73;;
28605;SDS011;46498;49.968;7.754;2023-08-17T12:48:59;2.12;;;1.40;;
28605;SDS011;46498;49.968;7.754;2023-08-17T12:54:00;2.03;;;1.52;;
28605;SDS011;46498;49.968;7.754;2023-08-17T12:59:01;1.65;;;1.30;;
28605;SDS011;46498;49.968;7.754;2023-08-17T13:09:04;3.50;;;1.90;;
28605;SDS011;46498;49.968;7.754;2023-08-17T13:14:06;3.10;;;1.73;;
28605;SDS011;46498;49.968;7.754;2023-08-17T13:19:07;3.33;;;1.60;;
28605;SDS011;46498;49.968;7.754;2023-08-17T13:24:07;7.22;;;2.70;;
28605;SDS011;46498;49.968;7.754;2023-08-17T13:29:09;2.15;;;1.75;;
28605;SDS011;46498;49.968;7.754;2023-08-17T13:34:10;1.60;;;1.50;;
28605;SDS011;46498;49.968;7.754;2023-08-17T13:39:12;7.25;;;2.95;;
28605;SDS011;46498;49.968;7.754;2023-08-17T13:44:12;4.05;;;1.85;;
28605;SDS011;46498;49.968;7.754;2023-08-17T13:49:13;2.45;;;1.62;;
28605;SDS011;46498;49.968;7.754;2023-08-17T13:54:14;3.35;;;2.00;;
28605;SDS011;46498;49.968;7.754;2023-08-17T13:59:15;2.40;;;1.80;;
28605;SDS011;46498;49.968;7.754;2023-08-17T14:04:16;4.68;;;1.85;;
28605;SDS011;46498;49.968;7.754;2023-08-17T14:09:18;2.25;;;1.92;;
28605;SDS011;46498;49.968;7.754;2023-08-17T14:14:19;3.92;;;1.92;;
28605;SDS011;46498;49.968;7.754;2023-08-17T14:19:20;4.47;;;1.90;;
28605;SDS011;46498;49.968;7.754;2023-08-17T14:24:21;5.25;;;2.00;;
28605;SDS011;46498;49.968;7.754;2023-08-17T14:29:22;2.87;;;2.10;;
28605;SDS011;46498;49.968;7.754;2023-08-17T14:34:23;3.15;;;1.80;;
28605;SDS011;46498;49.968;7.754;2023-08-17T14:39:24;3.87;;;1.80;;
28605;SDS011;46498;49.968;7.754;2023-08-17T14:44:25;1.87;;;1.75;;
28605;SDS011;46498;49.968;7.754;2023-08-17T14:49:25;2.75;;;2.00;;
28605;SDS011;46498;49.968;7.754;2023-08-17T14:54:27;2.70;;;1.80;;
28605;SDS011;46498;49.968;7.754;2023-08-17T14:59:29;2.40;;;2.10;;
28605;SDS011;46498;49.968;7.754;2023-08-17T15:04:30;2.03;;;1.83;;
28605;SDS011;46498;49.968;7.754;2023-08-17T15:09:31;3.40;;;2.12;;
28605;SDS011;46498;49.968;7.754;2023-08-17T15:14:32;4.22;;;2.40;;
28605;SDS011;46498;49.968;7.754;2023-08-17T15:19:33;2.90;;;2.40;;
28605;SDS011;46498;49.968;7.754;2023-08-17T15:24:41;2.83;;;1.87;;
28605;SDS011;46498;49.968;7.754;2023-08-17T15:29:43;2.65;;;2.10;;
28605;SDS011;46498;49.968;7.754;2023-08-17T15:34:44;2.30;;;2.00;;
28605;SDS011;46498;49.968;7.754;2023-08-17T15:39:45;3.87;;;2.40;;
28605;SDS011;46498;49.968;7.754;2023-08-17T15:44:46;3.17;;;2.67;;
28605;SDS011;46498;49.968;7.754;2023-08-17T15:49:47;4.00;;;2.40;;
28605;SDS011;46498;49.968;7.754;2023-08-17T15:54:47;2.90;;;2.30;;
28605;SDS011;46498;49.968;7.754;2023-08-17T15:59:49;2.60;;;2.40;;
28605;SDS011;46498;49.968;7.754;2023-08-17T16:04:50;2.50;;;2.20;;
28605;SDS011;46498;49.968;7.754;2023-08-17T16:09:51;4.20;;;2.25;;
28605;SDS011;46498;49.968;7.754;2023-08-17T16:14:52;2.78;;;2.33;;
28605;SDS011;46498;49.968;7.754;2023-08-17T16:19:53;3.05;;;2.15;;
28605;SDS011;46498;49.968;7.754;2023-08-17T16:24:54;2.58;;;2.20;;
28605;SDS011;46498;49.968;7.754;2023-08-17T16:29:54;2.60;;;2.28;;
28605;SDS011;46498;49.968;7.754;2023-08-17T16:34:56;2.93;;;2.30;;
28605;SDS011;46498;49.968;7.754;2023-08-17T16:39:57;4.90;;;2.83;;
28605;SDS011;46498;49.968;7.754;2023-08-17T16:44:58;5.97;;;2.67;;
28605;SDS011;46498;49.968;7.754;2023-08-17T16:49:59;3.45;;;2.53;;
28605;SDS011;46498;49.968;7.754;2023-08-17T17:00:02;4.60;;;2.92;;
28605;SDS011;46498;49.968;7.754;2023-08-17T17:05:06;5.60;;;2.40;;
28605;SDS011;46498;49.968;7.754;2023-08-17T17:15:08;3.03;;;2.60;;
28605;SDS011;46498;49.968;7.754;2023-08-17T17:20:10;4.93;;;2.83;;
28605;SDS011;46498;49.968;7.754;2023-08-17T17:25:11;3.55;;;2.47;;
28605;SDS011;46498;49.968;7.754;2023-08-17T17:30:12;3.50;;;2.72;;
28605;SDS011;46498;49.968;7.754;2023-08-17T17:35:13;3.90;;;2.70;;
28605;SDS011;46498;49.968;7.754;2023-08-17T17:40:14;4.30;;;2.55;;
28605;SDS011;46498;49.968;7.754;2023-08-17T17:45:17;3.20;;;2.30;;
28605;SDS011;46498;49.968;7.754;2023-08-17T17:50:18;3.47;;;2.72;;
28605;SDS011;46498;49.968;7.754;2023-08-17T17:55:19;3.80;;;2.70;;
28605;SDS011;46498;49.968;7.754;2023-08-17T18:00:20;2.70;;;2.33;;
28605;SDS011;46498;49.968;7.754;2023-08-17T18:05:20;3.30;;;2.65;;
28605;SDS011;46498;49.968;7.754;2023-08-17T18:10:23;6.20;;;2.80;;
28605;SDS011;46498;49.968;7.754;2023-08-17T18:15:24;5.70;;;2.62;;
28605;SDS011;46498;49.968;7.754;2023-08-17T18:20:25;3.05;;;2.40;;
28605;SDS011;46498;49.968;7.754;2023-08-17T18:25:26;5.05;;;2.70;;
28605;SDS011;46498;49.968;7.754;2023-08-17T18:30:28;6.57;;;2.60;;
28605;SDS011;46498;49.968;7.754;2023-08-17T18:35:32;3.72;;;2.78;;
28605;SDS011;46498;49.968;7.754;2023-08-17T18:40:33;4.97;;;2.55;;
28605;SDS011;46498;49.968;7.754;2023-08-17T18:45:33;4.07;;;2.70;;
28605;SDS011;46498;49.968;7.754;2023-08-17T18:50:34;5.62;;;2.60;;
28605;SDS011;46498;49.968;7.754;2023-08-17T18:55:36;4.50;;;2.40;;
28605;SDS011;46498;49.968;7.754;2023-08-17T19:00:37;4.25;;;2.40;;
28605;SDS011;46498;49.968;7.754;2023-08-17T19:05:38;3.78;;;2.60;;
28605;SDS011;46498;49.968;7.754;2023-08-17T19:10:39;8.70;;;2.55;;
28605;SDS011;46498;49.968;7.754;2023-08-17T19:15:40;4.20;;;2.65;;
28605;SDS011;46498;49.968;7.754;2023-08-17T19:20:41;5.87;;;2.50;;
28605;SDS011;46498;49.968;7.754;2023-08-17T19:25:42;2.75;;;2.20;;
28605;SDS011;46498;49.968;7.754;2023-08-17T19:30:43;4.28;;;2.42;;
28605;SDS011;46498;49.968;7.754;2023-08-17T19:35:44;3.87;;;2.33;;
28605;SDS011;46498;49.968;7.754;2023-08-17T19:40:46;5.20;;;2.40;;
28605;SDS011;46498;49.968;7.754;2023-08-17T19:45:47;3.92;;;2.50;;
28605;SDS011;46498;49.968;7.754;2023-08-17T19:50:48;3.72;;;2.40;;
28605;SDS011;46498;49.968;7.754;2023-08-17T19:55:49;5.72;;;2.53;;
28605;SDS011;46498;49.968;7.754;2023-08-17T20:00:50;5.72;;;2.40;;
28605;SDS011;46498;49.968;7.754;2023-08-17T20:05:51;5.60;;;2.80;;
28605;SDS011;46498;49.968;7.754;2023-08-17T20:10:56;3.70;;;2.90;;
28605;SDS011;46498;49.968;7.754;2023-08-17T20:15:56;6.55;;;3.10;;
28605;SDS011;46498;49.968;7.754;2023-08-17T20:20:58;5.15;;;2.50;;
28605;SDS011;46498;49.968;7.754;2023-08-17T20:25:59;2.97;;;2.62;;
28605;SDS011;46498;49.968;7.754;2023-08-17T20:31:00;4.80;;;2.58;;
28605;SDS011;46498;49.968;7.754;2023-08-17T20:36:01;6.05;;;2.22;;
28605;SDS011;46498;49.968;7.754;2023-08-17T20:41:02;6.28;;;2.78;;
28605;SDS011;46498;49.968;7.754;2023-08-17T20:46:06;5.07;;;2.22;;
28605;SDS011;46498;49.968;7.754;2023-08-17T20:51:07;4.60;;;2.35;;
28605;SDS011;46498;49.968;7.754;2023-08-17T20:56:08;5.35;;;2.47;;
28605;SDS011;46498;49.968;7.754;2023-08-17T21:01:09;5.22;;;2.30;;
28605;SDS011;46498;49.968;7.754;2023-08-17T21:06:10;5.22;;;2.65;;
28605;SDS011;46498;49.968;7.754;2023-08-17T21:11:11;3.03;;;2.30;;
28605;SDS011;46498;49.968;7.754;2023-08-17T21:16:12;8.38;;;2.78;;
28605;SDS011;46498;49.968;7.754;2023-08-17T21:21:13;5.65;;;2.60;;
28605;SDS011;46498;49.968;7.754;2023-08-17T21:26:14;8.88;;;2.80;;
28605;SDS011;46498;49.968;7.754;2023-08-17T21:31:15;4.87;;;2.53;;
28605;SDS011;46498;49.968;7.754;2023-08-17T21:36:16;4.05;;;2.15;;
28605;SDS011;46498;49.968;7.754;2023-08-17T21:41:17;3.47;;;2.33;;
28605;SDS011;46498;49.968;7.754;2023-08-17T21:46:18;3.75;;;2.60;;
28605;SDS011;46498;49.968;7.754;2023-08-17T21:51:19;7.45;;;2.47;;
28605;SDS011;46498;49.968;7.754;2023-08-17T21:56:20;4.10;;;2.22;;
28605;SDS011;46498;49.968;7.754;2023-08-17T22:01:20;3.85;;;2.30;;
28605;SDS011;46498;49.968;7.754;2023-08-17T22:06:21;3.12;;;2.45;;
28605;SDS011;46498;49.968;7.754;2023-08-17T22:11:22;6.90;;;2.40;;
28605;SDS011;46498;49.968;7.754;2023-08-17T22:16:23;5.00;;;2.30;;
28605;SDS011;46498;49.968;7.754;2023-08-17T22:21:24;6.20;;;2.92;;
28605;SDS011;46498;49.968;7.754;2023-08-17T22:26:25;3.72;;;2.83;;
28605;SDS011;46498;49.968;7.754;2023-08-17T22:31:26;3.87;;;2.37;;
28605;SDS011;46498;49.968;7.754;2023-08-17T22:36:27;3.53;;;2.62;;
28605;SDS011;46498;49.968;7.754;2023-08-17T22:41:27;4.28;;;2.62;;
28605;SDS011;46498;49.968;7.754;2023-08-17T22:46:28;4.53;;;2.67;;
28605;SDS011;46498;49.968;7.754;2023-08-17T22:51:29;5.80;;;2.67;;
28605;SDS011;46498;49.968;7.754;2023-08-17T22:56:30;4.35;;;2.70;;
28605;SDS011;46498;49.968;7.754;2023-08-17T23:01:31;7.55;;;3.00;;
28605;SDS011;46498;49.968;7.754;2023-08-17T23:06:32;3.12;;;2.80;;
28605;SDS011;46498;49.968;7.754;2023-08-17T23:11:33;3.35;;;2.90;;
28605;SDS011;46498;49.968;7.754;2023-08-17T23:16:34;4.15;;;3.10;;
28605;SDS011;46498;49.968;7.754;2023-08-17T23:21:35;6.25;;;2.95;;
28605;SDS011;46498;49.968;7.754;2023-08-17T23:26:36;5.12;;;3.42;;
28605;SDS011;46498;49.968;7.754;2023-08-17T23:31:37;5.50;;;3.12;;
28605;SDS011;46498;49.968;7.754;2023-08-17T23:36:38;6.93;;;3.28;;
28605;SDS011;46498;49.968;7.754;2023-08-17T23:41:38;4.43;;;3.22;;
28605;SDS011;46498;49.968;7.754;2023-08-17T23:46:39;7.18;;;3.62;;
28605;SDS011;46498;49.968;7.754;2023-08-17T23:51:40;5.82;;;3.22;;
28605;SDS011;46498;49.968;7.754;2023-08-17T23:56:41;4.65;;;2.90;;
